createdAt,value
2022-10-03T00:02:18.396Z,13.55
2022-10-03T00:05:03.589Z,13.48
2022-10-03T00:08:09.022Z,13.45
2022-10-03T00:10:38.715Z,13.46
2022-10-03T00:13:51.866Z,13.39
2022-10-03T00:16:41.471Z,13.40
2022-10-03T00:19:42.970Z,13.37
2022-10-03T00:22:21.210Z,13.38
2022-10-03T00:25:29.548Z,13.32
2022-10-03T00:28:13.607Z,13.31
2022-10-03T00:31:01.329Z,13.29
2022-10-03T00:33:51.100Z,13.31
2022-10-03T00:36:55.504Z,13.26
2022-10-03T00:39:27.809Z,13.26
2022-10-03T00:42:06.613Z,13.23
2022-10-03T00:44:43.652Z,13.25
2022-10-03T00:47:22.218Z,13.22
2022-10-03T00:50:01.151Z,13.21
2022-10-03T00:52:40.026Z,13.19
2022-10-03T00:55:27.971Z,13.16
2022-10-03T00:58:16.470Z,13.14
2022-10-03T01:00:50.882Z,13.14
2022-10-03T01:03:28.446Z,13.11
2022-10-03T01:06:46.530Z,13.08
2022-10-03T01:09:27.417Z,13.09
2022-10-03T01:12:21.755Z,13.08
2022-10-03T01:14:57.284Z,13.09
2022-10-03T01:17:56.200Z,13.05
2022-10-03T01:20:47.418Z,13.02
2022-10-03T01:23:13.870Z,13.06
2022-10-03T01:26:37.155Z,12.98
2022-10-03T01:29:28.487Z,13.01
2022-10-03T01:32:05.391Z,12.98
2022-10-03T01:34:38.238Z,12.96
2022-10-03T01:37:22.625Z,12.93
2022-10-03T01:40:26.342Z,12.92
2022-10-03T01:43:14.801Z,12.93
2022-10-03T01:46:09.082Z,12.91
2022-10-03T01:49:00.427Z,12.88
2022-10-03T01:51:27.579Z,12.91
2022-10-03T01:54:20.064Z,12.90
2022-10-03T01:57:12.365Z,12.85
2022-10-03T01:59:45.613Z,12.87
2022-10-03T02:02:49.069Z,12.84
2022-10-03T02:05:25.837Z,12.84
2022-10-03T02:08:01.049Z,12.84
2022-10-03T02:11:02.735Z,12.79
2022-10-03T02:13:44.134Z,12.81
2022-10-03T02:16:15.913Z,12.81
2022-10-03T02:18:55.568Z,12.80
2022-10-03T02:21:27.033Z,12.81
2022-10-03T02:24:18.929Z,12.79
2022-10-03T02:26:48.107Z,12.81
2022-10-03T02:29:39.369Z,12.79
2022-10-03T02:32:24.222Z,12.76
2022-10-03T02:35:15.000Z,12.74
2022-10-03T02:37:48.458Z,12.79
2022-10-03T02:40:29.241Z,12.75
2022-10-03T02:43:52.854Z,12.72
2022-10-03T02:47:17.855Z,12.71
2022-10-03T02:50:02.879Z,12.75
2022-10-03T02:53:07.687Z,12.69
2022-10-03T02:56:11.814Z,12.67
2022-10-03T02:59:15.487Z,12.66
2022-10-03T03:01:52.423Z,12.66
2022-10-03T03:04:56.728Z,12.63
2022-10-03T03:07:38.383Z,12.62
2022-10-03T03:10:20.169Z,12.62
2022-10-03T03:13:08.199Z,12.61
2022-10-03T03:15:59.924Z,12.60
2022-10-03T03:18:34.539Z,12.59
2022-10-03T03:21:23.804Z,12.57
2022-10-03T03:24:05.851Z,12.59
2022-10-03T03:26:53.285Z,12.56
2022-10-03T03:29:44.432Z,12.57
2022-10-03T03:32:52.363Z,12.54
2022-10-03T03:35:46.717Z,12.56
2022-10-03T03:38:35.085Z,12.53
2022-10-03T03:41:21.194Z,12.54
2022-10-03T03:44:25.507Z,12.51
2022-10-03T03:47:30.290Z,12.50
2022-10-03T03:50:07.952Z,12.53
2022-10-03T03:52:49.627Z,12.51
2022-10-03T03:55:34.732Z,12.49
2022-10-03T03:58:40.236Z,12.49
2022-10-03T04:01:39.183Z,12.49
2022-10-03T04:04:44.195Z,12.52
2022-10-03T04:07:32.350Z,12.49
2022-10-03T04:10:32.992Z,12.48
2022-10-03T04:13:21.149Z,12.50
2022-10-03T04:16:13.938Z,12.46
2022-10-03T04:18:58.423Z,12.47
2022-10-03T04:21:28.331Z,12.46
2022-10-03T04:24:21.978Z,12.40
2022-10-03T04:27:25.678Z,12.38
2022-10-03T04:30:23.424Z,12.39
2022-10-03T04:33:02.089Z,12.42
2022-10-03T04:36:06.341Z,12.39
2022-10-03T04:39:00.977Z,12.37
2022-10-03T04:41:46.074Z,12.36
2022-10-03T04:44:39.320Z,12.40
2022-10-03T04:47:26.273Z,12.39
2022-10-03T04:49:56.202Z,12.43
2022-10-03T04:52:39.478Z,12.39
2022-10-03T04:55:06.648Z,12.43
2022-10-03T04:57:54.768Z,12.44
2022-10-03T05:00:41.597Z,12.43
2022-10-03T05:03:26.937Z,12.45
2022-10-03T05:06:18.152Z,12.41
2022-10-03T05:08:50.222Z,12.42
2022-10-03T05:11:45.489Z,12.38
2022-10-03T05:14:56.330Z,12.39
2022-10-03T05:17:37.366Z,12.40
2022-10-03T05:20:34.456Z,12.37
2022-10-03T05:23:25.036Z,12.37
2022-10-03T05:26:30.878Z,12.36
2022-10-03T05:29:03.752Z,12.36
2022-10-03T05:31:30.271Z,12.37
2022-10-03T05:34:04.327Z,12.35
2022-10-03T05:36:51.084Z,12.33
2022-10-03T05:39:23.572Z,12.34
2022-10-03T05:42:21.518Z,12.34
2022-10-03T05:45:07.078Z,12.34
2022-10-03T05:47:55.490Z,12.32
2022-10-03T05:50:43.646Z,12.35
2022-10-03T05:53:31.713Z,12.34
2022-10-03T05:56:22.883Z,12.32
2022-10-03T05:59:07.807Z,12.32
2022-10-03T06:01:46.135Z,12.36
2022-10-03T06:04:21.901Z,12.34
2022-10-03T06:06:53.325Z,12.36
2022-10-03T06:09:44.852Z,12.37
2022-10-03T06:12:25.385Z,12.42
2022-10-03T06:15:10.576Z,12.45
2022-10-03T06:18:02.025Z,12.47
2022-10-03T06:21:05.315Z,12.46
2022-10-03T06:23:31.828Z,12.53
2022-10-03T06:26:15.025Z,12.50
2022-10-03T06:29:22.248Z,12.53
2022-10-03T06:32:13.007Z,12.57
2022-10-03T06:35:17.353Z,12.58
2022-10-03T06:38:26.205Z,12.61
2022-10-03T06:41:04.344Z,12.68
2022-10-03T06:44:01.382Z,12.69
2022-10-03T06:46:46.354Z,12.72
2022-10-03T06:49:29.236Z,12.77
2022-10-03T06:52:04.962Z,12.78
2022-10-03T06:55:24.524Z,12.79
2022-10-03T06:58:28.489Z,12.83
2022-10-03T07:01:12.982Z,12.87
2022-10-03T07:04:30.685Z,12.86
2022-10-03T07:07:32.826Z,12.88
2022-10-03T07:10:29.590Z,12.90
2022-10-03T07:13:24.260Z,12.92
2022-10-03T07:16:27.480Z,12.93
2022-10-03T07:19:22.881Z,12.95
2022-10-03T07:22:01.622Z,12.99
2022-10-03T07:24:41.526Z,13.01
2022-10-03T07:27:27.732Z,13.05
2022-10-03T07:30:12.180Z,13.11
2022-10-03T07:33:06.562Z,13.15
2022-10-03T07:36:03.874Z,13.27
2022-10-03T07:38:58.233Z,13.40
2022-10-03T07:41:34.061Z,13.50
2022-10-03T07:44:06.348Z,13.60
2022-10-03T07:46:42.115Z,13.66
2022-10-03T07:49:27.384Z,13.74
2022-10-03T07:52:26.960Z,13.83
2022-10-03T07:55:43.888Z,13.90
2022-10-03T07:58:37.967Z,13.97
2022-10-03T08:01:35.702Z,14.01
2022-10-03T08:04:26.113Z,14.06
2022-10-03T08:07:14.612Z,14.12
2022-10-03T08:10:17.196Z,14.13
2022-10-03T08:13:24.773Z,14.15
2022-10-03T08:16:06.126Z,14.19
2022-10-03T08:19:00.819Z,14.19
2022-10-03T08:21:50.276Z,14.24
2022-10-03T08:24:54.254Z,14.20
2022-10-03T08:27:43.347Z,14.23
2022-10-03T08:30:15.206Z,14.28
2022-10-03T08:32:57.816Z,14.28
2022-10-03T08:35:49.126Z,14.31
2022-10-03T08:38:33.986Z,14.36
2022-10-03T08:41:18.128Z,14.44
2022-10-03T08:43:53.757Z,14.46
2022-10-03T08:46:42.230Z,14.50
2022-10-03T08:49:44.839Z,14.55
2022-10-03T08:52:23.307Z,14.65
2022-10-03T08:55:02.420Z,14.71
2022-10-03T08:58:00.277Z,14.73
2022-10-03T09:00:56.133Z,14.81
2022-10-03T09:03:42.794Z,14.90
2022-10-03T09:06:24.814Z,14.96
2022-10-03T09:09:05.880Z,15.01
2022-10-03T09:11:32.394Z,15.09
2022-10-03T09:14:05.107Z,15.17
2022-10-03T09:16:44.559Z,15.21
2022-10-03T09:19:27.190Z,15.28
2022-10-03T09:22:03.162Z,15.36
2022-10-03T09:25:03.967Z,15.43
2022-10-03T09:27:50.367Z,15.50
2022-10-03T09:30:30.992Z,15.59
2022-10-03T09:33:22.330Z,15.67
2022-10-03T09:36:04.522Z,15.74
2022-10-03T09:39:30.029Z,15.80
2022-10-03T09:42:27.503Z,15.90
2022-10-03T09:45:16.180Z,16.00
2022-10-03T09:48:04.997Z,16.08
2022-10-03T09:51:02.216Z,16.19
2022-10-03T09:53:59.750Z,16.30
2022-10-03T09:56:26.275Z,16.44
2022-10-03T09:59:12.116Z,16.49
2022-10-03T10:01:41.796Z,16.62
2022-10-03T10:04:54.315Z,16.68
2022-10-03T10:07:38.005Z,16.84
2022-10-03T10:10:42.023Z,16.97
2022-10-03T10:13:26.770Z,17.14
2022-10-03T10:16:15.296Z,17.30
2022-10-03T10:19:03.531Z,17.49
2022-10-03T10:21:30.079Z,17.71
2022-10-03T10:24:14.783Z,17.88
2022-10-03T10:27:35.666Z,18.10
2022-10-03T10:30:22.281Z,18.31
2022-10-03T10:33:03.711Z,18.49
2022-10-03T10:36:06.921Z,18.62
2022-10-03T10:39:07.120Z,18.80
2022-10-03T10:41:55.306Z,19.00
2022-10-03T10:45:06.343Z,19.13
2022-10-03T10:47:51.567Z,19.23
2022-10-03T10:50:36.709Z,19.26
2022-10-03T10:53:09.454Z,19.30
2022-10-03T10:55:54.422Z,19.28
2022-10-03T10:58:58.156Z,19.27
2022-10-03T11:01:30.951Z,19.31
2022-10-03T11:03:57.534Z,19.36
2022-10-03T11:07:16.533Z,19.25
2022-10-03T11:10:02.717Z,19.19
2022-10-03T11:12:41.129Z,19.14
2022-10-03T11:15:26.530Z,19.02
2022-10-03T11:18:08.456Z,18.96
2022-10-03T11:20:44.119Z,18.89
2022-10-03T11:23:16.402Z,18.88
2022-10-03T11:26:37.122Z,18.80
2022-10-03T11:29:06.621Z,18.87
2022-10-03T11:31:59.026Z,18.89
2022-10-03T11:34:43.101Z,19.13
2022-10-03T11:37:27.531Z,19.59
2022-10-03T11:40:21.836Z,20.14
2022-10-03T11:43:00.143Z,20.63
2022-10-03T11:45:33.317Z,20.92
2022-10-03T11:48:10.002Z,21.05
2022-10-03T11:51:01.466Z,21.05
2022-10-03T11:53:47.984Z,20.97
2022-10-03T11:56:44.895Z,20.88
2022-10-03T11:59:34.234Z,20.91
2022-10-03T12:02:10.181Z,21.03
2022-10-03T12:04:45.627Z,21.20
2022-10-03T12:07:43.217Z,21.51
2022-10-03T12:10:30.210Z,22.06
2022-10-03T12:12:57.992Z,22.63
2022-10-03T12:15:51.008Z,23.08
2022-10-03T12:18:45.528Z,23.45
2022-10-03T12:21:21.086Z,23.68
2022-10-03T12:24:20.939Z,23.87
2022-10-03T12:27:05.877Z,24.24
2022-10-03T12:29:36.299Z,24.61
2022-10-03T12:32:16.002Z,24.91
2022-10-03T12:35:00.117Z,25.19
2022-10-03T12:37:38.844Z,25.48
2022-10-03T12:40:12.377Z,25.65
2022-10-03T12:42:53.403Z,25.62
2022-10-03T12:45:27.574Z,25.53
2022-10-03T12:48:16.422Z,25.29
2022-10-03T12:50:59.603Z,25.03
2022-10-03T12:53:41.721Z,25.05
2022-10-03T12:56:25.087Z,25.26
2022-10-03T12:59:04.035Z,25.62
2022-10-03T13:02:03.068Z,26.01
2022-10-03T13:05:00.815Z,26.36
2022-10-03T13:08:02.411Z,26.57
2022-10-03T13:11:17.248Z,26.62
2022-10-03T13:14:19.138Z,26.50
2022-10-03T13:17:14.745Z,26.29
2022-10-03T13:20:06.570Z,26.06
2022-10-03T13:22:57.967Z,25.89
2022-10-03T13:25:36.203Z,25.69
2022-10-03T13:28:18.828Z,25.52
2022-10-03T13:31:00.135Z,25.33
2022-10-03T13:33:32.349Z,25.15
2022-10-03T13:36:26.796Z,24.84
2022-10-03T13:38:55.144Z,24.65
2022-10-03T13:41:46.751Z,24.31
2022-10-03T13:44:36.335Z,24.21
2022-10-03T13:47:27.255Z,24.05
2022-10-03T13:49:58.815Z,24.07
2022-10-03T13:52:43.387Z,24.14
2022-10-03T13:55:13.230Z,24.36
2022-10-03T13:57:47.614Z,24.58
2022-10-03T14:00:21.176Z,24.82
2022-10-03T14:03:17.181Z,24.96
2022-10-03T14:06:11.669Z,25.07
2022-10-03T14:09:10.222Z,25.06
2022-10-03T14:11:47.793Z,25.05
2022-10-03T14:14:25.369Z,24.97
2022-10-03T14:17:00.801Z,24.77
2022-10-03T14:19:53.389Z,24.56
2022-10-03T14:22:36.119Z,24.36
2022-10-03T14:25:27.760Z,24.12
2022-10-03T14:28:08.134Z,23.86
2022-10-03T14:31:07.284Z,23.50
2022-10-03T14:34:15.941Z,23.19
2022-10-03T14:37:03.980Z,22.96
2022-10-03T14:40:13.585Z,22.55
2022-10-03T14:42:58.988Z,22.37
2022-10-03T14:45:39.050Z,22.09
2022-10-03T14:48:17.795Z,21.91
2022-10-03T14:50:48.887Z,21.82
2022-10-03T14:53:25.126Z,21.70
2022-10-03T14:55:51.600Z,21.68
2022-10-03T14:58:21.821Z,21.65
2022-10-03T15:01:28.798Z,21.61
2022-10-03T15:04:04.347Z,21.64
2022-10-03T15:06:33.000Z,21.63
2022-10-03T15:09:02.619Z,21.58
2022-10-03T15:11:47.791Z,21.44
2022-10-03T15:14:14.777Z,21.40
2022-10-03T15:16:48.835Z,21.26
2022-10-03T15:19:20.194Z,21.16
2022-10-03T15:21:50.940Z,21.07
2022-10-03T15:24:25.142Z,20.98
2022-10-03T15:26:59.987Z,20.90
2022-10-03T15:29:28.272Z,20.86
2022-10-03T15:31:58.064Z,20.79
2022-10-03T15:34:32.258Z,20.75
2022-10-03T15:37:10.901Z,20.72
2022-10-03T15:39:44.011Z,20.69
2022-10-03T15:42:10.497Z,20.67
2022-10-03T15:44:40.054Z,20.63
2022-10-03T15:47:13.777Z,20.58
2022-10-03T15:49:50.257Z,20.55
2022-10-03T15:52:19.849Z,20.55
2022-10-03T15:54:54.705Z,20.50
2022-10-03T15:57:31.888Z,20.48
2022-10-03T16:00:03.317Z,20.52
2022-10-03T16:02:30.313Z,20.48
2022-10-03T16:04:58.141Z,20.41
2022-10-03T16:07:36.988Z,20.33
2022-10-03T16:10:21.012Z,20.26
2022-10-03T16:13:03.580Z,20.23
2022-10-03T16:15:49.589Z,20.15
2022-10-03T16:18:19.207Z,20.14
2022-10-03T16:21:06.124Z,20.03
2022-10-03T16:23:37.950Z,20.01
2022-10-03T16:26:08.335Z,19.94
2022-10-03T16:28:44.375Z,19.85
2022-10-03T16:31:32.856Z,19.73
2022-10-03T16:34:03.930Z,19.69
2022-10-03T16:36:40.322Z,19.61
2022-10-03T16:39:23.855Z,19.51
2022-10-03T16:41:55.943Z,19.44
2022-10-03T16:44:34.309Z,19.36
2022-10-03T16:47:03.569Z,19.29
2022-10-03T16:49:48.789Z,19.22
2022-10-03T16:52:38.228Z,19.11
2022-10-03T16:55:12.940Z,19.03
2022-10-03T16:57:46.195Z,18.95
2022-10-03T17:00:25.552Z,18.80
2022-10-03T17:02:54.199Z,18.73
2022-10-03T17:05:21.245Z,18.66
2022-10-03T17:08:23.628Z,18.52
2022-10-03T17:10:55.916Z,18.46
2022-10-03T17:13:28.591Z,18.38
2022-10-03T17:16:09.147Z,18.29
2022-10-03T17:18:44.663Z,18.21
2022-10-03T17:21:31.267Z,18.12
2022-10-03T17:24:03.682Z,18.07
2022-10-03T17:26:36.030Z,18.03
2022-10-03T17:29:18.145Z,17.94
2022-10-03T17:31:47.841Z,17.92
2022-10-03T17:34:22.633Z,17.84
2022-10-03T17:37:13.572Z,17.80
2022-10-03T17:39:50.481Z,17.72
2022-10-03T17:42:37.964Z,17.64
2022-10-03T17:45:30.686Z,17.61
2022-10-03T17:48:06.883Z,17.54
2022-10-03T17:50:51.517Z,17.49
2022-10-03T17:53:38.518Z,17.39
2022-10-03T17:56:20.510Z,17.38
2022-10-03T17:59:03.094Z,17.30
2022-10-03T18:01:36.794Z,17.27
2022-10-03T18:04:10.770Z,17.24
2022-10-03T18:07:13.637Z,17.16
2022-10-03T18:09:47.617Z,17.15
2022-10-03T18:12:32.180Z,17.09
2022-10-03T18:15:16.372Z,17.09
2022-10-03T18:18:09.138Z,17.05
2022-10-03T18:20:58.531Z,16.97
2022-10-03T18:24:00.324Z,16.91
2022-10-03T18:26:40.519Z,16.91
2022-10-03T18:29:19.101Z,16.83
2022-10-03T18:31:55.563Z,16.80
2022-10-03T18:34:46.041Z,16.74
2022-10-03T18:37:30.856Z,16.70
2022-10-03T18:39:59.409Z,16.70
2022-10-03T18:42:28.364Z,16.66
2022-10-03T18:44:57.440Z,16.63
2022-10-03T18:47:44.019Z,16.57
2022-10-03T18:50:26.638Z,16.54
2022-10-03T18:52:59.347Z,16.56
2022-10-03T18:55:37.782Z,16.52
2022-10-03T18:58:19.154Z,16.53
2022-10-03T19:00:55.906Z,16.48
2022-10-03T19:03:34.291Z,16.49
2022-10-03T19:06:08.196Z,16.46
2022-10-03T19:08:42.313Z,16.46
2022-10-03T19:11:17.791Z,16.42
2022-10-03T19:13:56.332Z,16.41
2022-10-03T19:16:35.101Z,16.36
2022-10-03T19:19:33.981Z,16.31
2022-10-03T19:22:06.536Z,16.32
2022-10-03T19:24:57.199Z,16.32
2022-10-03T19:27:38.336Z,16.28
2022-10-03T19:30:06.765Z,16.27
2022-10-03T19:32:53.595Z,16.21
2022-10-03T19:35:23.297Z,16.24
2022-10-03T19:37:51.950Z,16.21
2022-10-03T19:40:30.743Z,16.20
2022-10-03T19:43:17.507Z,16.17
2022-10-03T19:46:02.308Z,16.16
2022-10-03T19:48:32.288Z,16.18
2022-10-03T19:51:09.877Z,16.15
2022-10-03T19:53:42.585Z,16.16
2022-10-03T19:56:15.689Z,16.15
2022-10-03T19:58:46.096Z,16.17
2022-10-03T20:01:13.376Z,16.18
2022-10-03T20:03:52.212Z,16.18
2022-10-03T20:06:23.769Z,16.18
2022-10-03T20:09:07.551Z,16.18
2022-10-03T20:11:47.799Z,16.16
2022-10-03T20:14:19.770Z,16.18
2022-10-03T20:16:48.977Z,16.18
2022-10-03T20:19:22.295Z,16.17
2022-10-03T20:21:57.542Z,16.15
2022-10-03T20:24:33.955Z,16.13
2022-10-03T20:27:12.483Z,16.14
2022-10-03T20:30:17.516Z,16.10
2022-10-03T20:32:46.351Z,16.16
2022-10-03T20:35:42.163Z,16.10
2022-10-03T20:38:27.102Z,16.10
2022-10-03T20:41:01.285Z,16.12
2022-10-03T20:43:41.617Z,16.11
2022-10-03T20:46:15.891Z,16.11
2022-10-03T20:49:15.810Z,16.07
2022-10-03T20:51:56.429Z,16.08
2022-10-03T20:54:48.852Z,16.05
2022-10-03T20:57:20.043Z,16.07
2022-10-03T20:59:49.813Z,16.07
2022-10-03T21:02:36.978Z,16.04
2022-10-03T21:05:18.129Z,16.00
2022-10-03T21:07:52.266Z,16.01
2022-10-03T21:10:24.813Z,15.99
2022-10-03T21:13:01.711Z,15.96
2022-10-03T21:15:51.101Z,15.93
2022-10-03T21:18:22.778Z,15.94
2022-10-03T21:21:03.471Z,15.90
2022-10-03T21:23:35.289Z,15.90
2022-10-03T21:26:02.502Z,15.89
2022-10-03T21:28:34.627Z,15.85
2022-10-03T21:31:23.855Z,15.81
2022-10-03T21:34:15.856Z,15.79
2022-10-03T21:36:57.894Z,15.80
2022-10-03T21:39:37.585Z,15.75
2022-10-03T21:42:28.439Z,15.73
2022-10-03T21:45:13.837Z,15.70
2022-10-03T21:47:52.965Z,15.70
2022-10-03T21:50:23.992Z,15.70
2022-10-03T21:52:55.820Z,15.68
2022-10-03T21:55:53.369Z,15.66
2022-10-03T21:58:49.895Z,15.65
2022-10-03T22:01:29.539Z,15.66
2022-10-03T22:04:15.696Z,15.66
2022-10-03T22:07:02.744Z,15.61
2022-10-03T22:09:29.453Z,15.65
2022-10-03T22:12:01.344Z,15.61
2022-10-03T22:15:03.407Z,15.60
2022-10-03T22:17:35.273Z,15.63
2022-10-03T22:20:29.917Z,15.61
2022-10-03T22:23:02.733Z,15.67
2022-10-03T22:25:39.149Z,15.66
2022-10-03T22:28:33.821Z,15.65
2022-10-03T22:31:25.227Z,15.67
2022-10-03T22:34:22.901Z,15.67
2022-10-03T22:36:50.314Z,15.73
2022-10-03T22:39:18.842Z,15.74
2022-10-03T22:41:50.490Z,15.73
2022-10-03T22:44:19.927Z,15.72
2022-10-03T22:46:52.052Z,15.72
2022-10-03T22:49:28.799Z,15.71
2022-10-03T22:51:57.798Z,15.74
2022-10-03T22:54:33.573Z,15.70
2022-10-03T22:57:06.319Z,15.72
2022-10-03T22:59:38.559Z,15.71
2022-10-03T23:02:08.375Z,15.72
2022-10-03T23:04:39.738Z,15.71
2022-10-03T23:07:32.435Z,15.67
2022-10-03T23:10:10.916Z,15.71
2022-10-03T23:12:44.300Z,15.71
2022-10-03T23:15:16.665Z,15.72
2022-10-03T23:18:01.503Z,15.68
2022-10-03T23:20:34.096Z,15.72
2022-10-03T23:23:11.900Z,15.70
2022-10-03T23:26:23.984Z,15.67
2022-10-03T23:29:11.065Z,15.68
2022-10-03T23:31:50.004Z,15.67
2022-10-03T23:34:37.801Z,15.64
2022-10-03T23:37:23.665Z,15.64
2022-10-03T23:39:56.196Z,15.65
2022-10-03T23:42:31.659Z,15.66
2022-10-03T23:45:12.166Z,15.61
2022-10-03T23:47:47.112Z,15.63
2022-10-03T23:50:24.899Z,15.59
2022-10-03T23:52:58.349Z,15.59
2022-10-03T23:55:28.985Z,15.59
2022-10-03T23:57:56.234Z,15.58
